createdAt,value
2023-04-27T00:01:52.024Z,962.04
2023-04-27T00:16:53.882Z,961.77
2023-04-27T00:31:55.637Z,961.46
2023-04-27T00:46:57.379Z,961.21
2023-04-27T01:01:59.168Z,961.05
2023-04-27T01:17:01.251Z,960.83
2023-04-27T01:32:02.995Z,960.68
2023-04-27T01:47:04.805Z,960.5
2023-04-27T02:02:06.637Z,960.42
2023-04-27T02:17:08.453Z,960.23
2023-04-27T02:32:10.206Z,960.12
2023-04-27T02:47:11.939Z,960.16
2023-04-27T03:02:13.818Z,960.31
2023-04-27T03:17:15.633Z,960.33
2023-04-27T03:32:17.361Z,960.59
2023-04-27T03:47:19.134Z,960.63
2023-04-27T04:02:20.927Z,960.82
2023-04-27T04:17:22.735Z,960.94
2023-04-27T04:32:24.552Z,961.06
2023-04-27T04:47:26.316Z,961.27
2023-04-27T05:02:28.314Z,961.3
2023-04-27T05:17:30.280Z,961.53
2023-04-27T05:32:32.085Z,961.87
2023-04-27T05:47:33.845Z,962.03
2023-04-27T06:02:35.808Z,962.44
2023-04-27T06:17:37.856Z,962.55
2023-04-27T06:32:39.715Z,962.8
2023-04-27T06:47:41.522Z,963.04
2023-04-27T07:02:43.351Z,963.42
2023-04-27T07:17:45.151Z,963.6
2023-04-27T07:32:46.873Z,963.77
2023-04-27T07:47:48.630Z,963.95
2023-04-27T08:02:50.597Z,963.94
2023-04-27T08:17:52.627Z,964.06
2023-04-27T08:32:54.412Z,964.38
2023-04-27T08:47:56.243Z,964.52
2023-04-27T09:02:58.082Z,964.83
2023-04-27T09:17:59.944Z,965.01
2023-04-27T09:33:01.759Z,965.27
2023-04-27T09:48:03.568Z,965.32
2023-04-27T10:03:05.401Z,965.61
2023-04-27T10:18:07.298Z,965.71
2023-04-27T10:33:09.172Z,965.81
2023-04-27T10:48:11.057Z,966.03
2023-04-27T11:03:13.143Z,966.25
2023-04-27T11:18:15.103Z,966.43
2023-04-27T11:33:16.838Z,966.49
2023-04-27T11:48:18.590Z,966.7
2023-04-27T12:03:20.699Z,966.87
2023-04-27T12:18:22.672Z,967.09
2023-04-27T12:33:24.446Z,967.29
2023-04-27T12:48:26.245Z,967.53
2023-04-27T13:03:28.225Z,967.79
2023-04-27T13:18:30.071Z,967.82
2023-04-27T13:33:31.860Z,967.94
2023-04-27T13:48:33.586Z,968.16
2023-04-27T14:03:35.454Z,968.52
2023-04-27T14:18:37.341Z,968.67
2023-04-27T14:33:39.106Z,968.88
2023-04-27T14:48:40.834Z,969.15
2023-04-27T15:03:42.734Z,969.48
2023-04-27T15:18:44.575Z,969.78
2023-04-27T15:33:46.274Z,969.87
2023-04-27T15:48:47.975Z,970.14
2023-04-27T16:03:49.806Z,970.24
2023-04-27T16:18:51.612Z,970.33
2023-04-27T16:33:53.500Z,970.51
2023-04-27T16:48:55.246Z,970.61
2023-04-27T17:03:57.133Z,970.64
2023-04-27T17:18:59.069Z,970.86
2023-04-27T17:34:00.818Z,970.9
2023-04-27T17:49:02.618Z,971.03
2023-04-27T18:04:04.909Z,971.12
2023-04-27T18:19:06.767Z,971.14
2023-04-27T18:34:08.501Z,971.16
2023-04-27T18:49:10.262Z,970.98
2023-04-27T19:04:12.205Z,971.07
2023-04-27T19:19:14.400Z,971
2023-04-27T19:34:16.227Z,971.04
2023-04-27T19:49:17.932Z,970.9
2023-04-27T20:04:20.239Z,970.71
2023-04-27T20:19:22.927Z,970.65
2023-04-27T20:34:24.715Z,970.63
2023-04-27T20:49:34.475Z,970.48
2023-04-27T21:04:37.369Z,970.35
2023-04-27T21:19:39.207Z,970.25
2023-04-27T21:34:41.065Z,970.12
2023-04-27T21:49:42.806Z,970
2023-04-27T22:04:45.426Z,969.81
2023-04-27T22:19:47.193Z,969.65
2023-04-27T22:34:49.053Z,969.53
2023-04-27T22:49:50.836Z,969.4
2023-04-27T23:04:52.577Z,969.19
2023-04-27T23:19:54.384Z,969.02
2023-04-27T23:34:56.128Z,968.94
2023-04-27T23:49:57.838Z,968.93
